Time,TemperatureF,DewpointF,PressureIn,WindDirection,WindDirectionDegrees,WindSpeedMPH,WindSpeedGustMPH,Humidity,HourlyPrecipIn,Conditions,Clouds,dailyrainin,SoftwareType,DateUTC
2013-12-16 00:22:00,-10.0,-13.0,30.12,SSW,193,0.0,0.0,86,0.00,,,0.00,,2013-12-16 06:22:00,
2013-12-16 05:12:00,-18.0,-21.0,30.16,SSW,193,0.0,0.0,84,0.00,,,0.00,,2013-12-16 11:12:00,
2013-12-16 05:22:00,-18.0,-22.0,30.16,SSW,193,0.0,0.0,83,0.00,,,0.00,,2013-12-16 11:22:00,
2013-12-16 05:42:00,-18.0,-22.0,30.17,SSW,193,0.0,0.0,83,0.00,,,0.00,,2013-12-16 11:42:00,
2013-12-16 05:52:00,-18.0,-22.0,30.18,SSW,193,0.0,0.0,83,0.00,,,0.00,,2013-12-16 11:52:00,
2013-12-16 06:12:00,-18.0,-22.0,30.19,SSW,193,0.0,0.0,83,0.00,,,0.00,,2013-12-16 12:12:00,
2013-12-16 06:22:00,-18.0,-22.0,30.18,SSW,193,0.0,0.0,83,0.00,,,0.00,,2013-12-16 12:22:00,
2013-12-16 06:42:00,-19.0,-23.0,30.18,SSW,193,0.0,0.0,83,0.00,,,0.00,,2013-12-16 12:42:00,
2013-12-16 06:52:00,-19.0,-23.0,30.17,SSW,193,0.0,0.0,83,0.00,,,0.00,,2013-12-16 12:52:00,
2013-12-16 07:11:00,-19.0,-23.0,30.17,SSW,193,0.0,0.0,82,0.00,,,0.00,,2013-12-16 13:11:00,
2013-12-16 07:22:00,-19.0,-23.0,30.18,SSW,193,0.0,0.0,83,0.00,,,0.00,,2013-12-16 13:22:00,
2013-12-16 07:42:00,-19.0,-22.0,30.18,SSW,193,0.0,0.0,84,0.00,,,0.00,,2013-12-16 13:42:00,
2013-12-16 07:52:00,-18.0,-21.0,30.18,SSW,193,0.0,0.0,85,0.00,,,0.00,,2013-12-16 13:52:00,
2013-12-16 08:12:00,-17.0,-20.0,30.18,SSW,193,0.0,0.0,85,0.00,,,0.00,,2013-12-16 14:12:00,
2013-12-16 08:22:00,-15.0,-18.0,30.18,SSW,193,0.0,0.0,85,0.00,,,0.00,,2013-12-16 14:22:00,
2013-12-16 08:42:00,-13.0,-16.0,30.18,SSW,193,0.0,0.0,85,0.00,,,0.00,,2013-12-16 14:42:00,
2013-12-16 08:52:00,-12.0,-15.0,30.17,SSW,193,0.0,0.0,86,0.00,,,0.00,,2013-12-16 14:52:00,
2013-12-16 09:11:00,-10.0,-13.0,30.16,SSW,193,0.0,0.0,86,0.00,,,0.00,,2013-12-16 15:11:00,
2013-12-16 09:21:00,-8.0,-11.0,30.18,SSW,193,0.0,0.0,85,0.00,,,0.00,,2013-12-16 15:21:00,
2013-12-16 09:43:00,-8.0,-12.0,30.17,SSW,193,0.0,0.0,84,0.00,,,0.00,,2013-12-16 15:43:00,
2013-12-16 09:54:00,-6.0,-9.0,30.16,SSW,193,0.0,0.0,86,0.00,,,0.00,,2013-12-16 15:54:00,
2013-12-16 10:13:00,-4.0,-7.0,30.16,SSW,193,0.0,0.0,87,0.00,,,0.00,,2013-12-16 16:13:00,
2013-12-16 10:23:00,-2.0,-5.0,30.15,SSW,193,0.0,0.0,86,0.00,,,0.00,,2013-12-16 16:23:00,
2013-12-16 10:43:00,0.0,-3.0,30.15,SSW,193,0.0,0.0,87,0.00,,,0.00,,2013-12-16 16:43:00,
2013-12-16 10:52:00,4.0,2.0,30.15,SE,142,0.0,3.0,89,0.00,,,0.00,,2013-12-16 16:52:00,
2013-12-16 11:12:00,8.0,5.0,30.15,SE,133,0.0,3.0,87,0.00,,,0.00,,2013-12-16 17:12:00,
2013-12-16 11:22:00,10.0,6.0,30.14,ENE,75,0.0,4.0,83,0.00,,,0.00,,2013-12-16 17:22:00,
2013-12-16 11:42:00,11.0,6.0,30.13,NE,43,1.0,4.0,80,0.00,,,0.00,,2013-12-16 17:42:00,
2013-12-16 11:52:00,11.0,6.0,30.11,NE,46,1.0,4.0,80,0.00,,,0.00,,2013-12-16 17:52:00,
2013-12-16 12:12:00,12.0,6.0,30.11,South,187,0.0,1.0,78,0.00,,,0.00,,2013-12-16 18:12:00,
2013-12-16 12:22:00,13.0,6.0,30.09,NNW,345,1.0,5.0,74,0.00,,,0.00,,2013-12-16 18:22:00,
2013-12-16 12:42:00,14.0,7.0,30.08,WNW,287,0.0,6.0,73,0.00,,,0.00,,2013-12-16 18:42:00,
2013-12-16 12:52:00,14.0,7.0,30.08,WNW,287,0.0,6.0,73,0.00,,,0.00,,2013-12-16 18:52:00,
2013-12-16 13:11:00,14.0,6.0,30.09,ESE,113,0.0,3.0,71,0.00,,,0.00,,2013-12-16 19:11:00,
2013-12-16 13:21:00,15.0,7.0,30.08,SSE,149,0.0,3.0,70,0.00,,,0.00,,2013-12-16 19:21:00,
2013-12-16 13:42:00,16.0,7.0,30.07,West,273,0.0,3.0,67,0.00,,,0.00,,2013-12-16 19:42:00,
2013-12-16 13:52:00,16.0,7.0,30.06,NE,36,0.0,2.0,67,0.00,,,0.00,,2013-12-16 19:52:00,
2013-12-16 14:11:00,15.0,6.0,30.05,NE,41,0.0,4.0,66,0.00,,,0.00,,2013-12-16 20:11:00,
2013-12-16 14:22:00,15.0,6.0,30.05,WSW,248,0.0,2.0,67,0.00,,,0.00,,2013-12-16 20:22:00,
2013-12-16 14:42:00,15.0,6.0,30.06,WNW,296,0.0,3.0,68,0.00,,,0.00,,2013-12-16 20:42:00,
2013-12-16 14:53:00,15.0,6.0,30.07,SE,139,0.0,3.0,67,0.00,,,0.00,,2013-12-16 20:53:00,
2013-12-16 15:12:00,15.0,5.0,30.05,WSW,239,0.0,6.0,65,0.00,,,0.00,,2013-12-16 21:12:00,
2013-12-16 15:22:00,14.0,5.0,30.05,SSE,158,0.0,2.0,67,0.00,,,0.00,,2013-12-16 21:22:00,
2013-12-16 15:43:00,14.0,6.0,30.06,NW,304,0.0,3.0,70,0.00,,,0.00,,2013-12-16 21:43:00,
2013-12-16 15:54:00,13.0,8.0,30.05,East,98,0.0,1.0,79,0.00,,,0.00,,2013-12-16 21:54:00,
2013-12-16 16:13:00,13.0,9.0,30.04,ENE,63,0.0,2.0,82,0.00,,,0.00,,2013-12-16 22:13:00,
2013-12-16 16:23:00,13.0,9.0,30.04,WSW,257,0.0,1.0,84,0.00,,,0.00,,2013-12-16 22:23:00,
2013-12-16 16:43:00,12.0,8.0,30.04,SE,141,0.0,1.0,85,0.00,,,0.00,,2013-12-16 22:43:00,
2013-12-16 16:53:00,12.0,9.0,30.03,SSE,163,0.0,1.0,86,0.00,,,0.00,,2013-12-16 22:53:00,
2013-12-16 17:02:00,12.0,9.0,30.03,SSE,163,0.0,1.0,86,0.00,,,0.00,,2013-12-16 23:02:00,
2013-12-16 17:12:00,12.0,9.0,30.03,SSE,163,0.0,1.0,86,0.00,,,0.00,,2013-12-16 23:12:00,
2013-12-16 17:22:00,12.0,9.0,30.02,SSE,150,0.0,2.0,87,0.00,,,0.00,,2013-12-16 23:22:00,
2013-12-16 17:42:00,12.0,9.0,30.01,SW,216,0.0,2.0,87,0.00,,,0.00,,2013-12-16 23:42:00,
2013-12-16 17:53:00,11.0,8.0,30.00,North,6,0.0,2.0,88,0.00,,,0.00,,2013-12-16 23:53:00,
2013-12-16 18:11:00,11.0,8.0,30.01,SE,141,0.0,2.0,86,0.00,,,0.00,,2013-12-17 00:11:00,
2013-12-16 18:22:00,11.0,8.0,30.00,ESE,121,0.0,3.0,87,0.00,,,0.00,,2013-12-17 00:22:00,
2013-12-16 18:42:00,11.0,8.0,30.01,WSW,248,0.0,1.0,87,0.00,,,0.00,,2013-12-17 00:42:00,
2013-12-16 18:52:00,11.0,8.0,30.01,ESE,113,0.0,4.0,87,0.00,,,0.00,,2013-12-17 00:52:00,
2013-12-16 19:11:00,11.0,8.0,29.99,SE,142,0.0,1.0,87,0.00,,,0.00,,2013-12-17 01:11:00,
2013-12-16 19:22:00,11.0,8.0,29.98,ESE,110,0.0,2.0,88,0.00,,,0.00,,2013-12-17 01:22:00,
2013-12-16 19:42:00,11.0,8.0,29.98,ENE,76,0.0,1.0,88,0.00,,,0.00,,2013-12-17 01:42:00,
2013-12-16 19:52:00,11.0,8.0,29.98,SSE,150,0.0,1.0,88,0.00,,,0.00,,2013-12-17 01:52:00,
2013-12-16 20:11:00,11.0,8.0,29.97,NNE,20,0.0,2.0,87,0.00,,,0.00,,2013-12-17 02:11:00,
2013-12-16 20:22:00,11.0,8.0,29.97,NNW,330,0.0,2.0,87,0.00,,,0.00,,2013-12-17 02:22:00,
2013-12-16 20:42:00,10.0,7.0,29.97,NW,313,0.0,1.0,87,0.00,,,0.00,,2013-12-17 02:42:00,
2013-12-16 20:52:00,10.0,7.0,29.96,WNW,289,0.0,2.0,86,0.00,,,0.00,,2013-12-17 02:52:00,
2013-12-16 21:11:00,10.0,7.0,29.96,NW,316,0.0,2.0,87,0.00,,,0.00,,2013-12-17 03:11:00,
2013-12-16 21:22:00,10.0,7.0,29.96,SE,146,0.0,3.0,87,0.00,,,0.00,,2013-12-17 03:22:00,
2013-12-16 21:33:00,10.0,7.0,29.96,SE,146,0.0,3.0,87,0.00,,,0.00,,2013-12-17 03:33:00,
2013-12-16 21:43:00,10.0,7.0,29.96,SE,146,0.0,3.0,87,0.00,,,0.00,,2013-12-17 03:43:00,
2013-12-16 21:53:00,10.0,7.0,29.95,SSE,148,0.0,1.0,87,0.00,,,0.00,,2013-12-17 03:53:00,
2013-12-16 22:13:00,10.0,7.0,29.95,NW,308,0.0,3.0,87,0.00,,,0.00,,2013-12-17 04:13:00,
2013-12-16 22:23:00,9.0,6.0,29.95,North,4,0.0,2.0,86,0.00,,,0.00,,2013-12-17 04:23:00,
2013-12-16 22:43:00,9.0,6.0,29.95,West,264,0.0,2.0,86,0.00,,,0.00,,2013-12-17 04:43:00,
2013-12-16 22:53:00,9.0,6.0,29.94,WSW,256,0.0,1.0,86,0.00,,,0.00,,2013-12-17 04:53:00,
2013-12-16 23:11:00,8.0,5.0,29.93,WSW,257,0.0,0.0,86,0.00,,,0.00,,2013-12-17 05:11:00,
2013-12-16 23:22:00,8.0,5.0,29.93,WSW,257,0.0,0.0,87,0.00,,,0.00,,2013-12-17 05:22:00,
2013-12-16 23:42:00,6.0,3.0,29.93,WSW,257,0.0,0.0,87,0.00,,,0.00,,2013-12-17 05:42:00,
2013-12-16 23:52:00,4.0,1.0,29.93,WSW,257,0.0,0.0,87,0.00,,,0.00,,2013-12-17 05:52:00,